KANB/ANB METAR and TAF weather

Enter ICAO airport designator
Station Type Date Time Source
KANB METAR 2020/01/19 22:53 UTC NOAA

KANB 192253Z AUTO 29008KT 10SM CLR 07/M07 A3025 RMK AO2 SLP251 T00671072


Station Type Date Time Source
KANB Decoded METAR 2020/01/19 22:53 UTC NOAA

ANNISTON METRO AIRPORT, AL, United States (KANB) 33-35N 085-51W 183M
Jan 19, 2020 - 05:53 PM EST / 2020.01.19 2253 UTC
Wind: from the WNW (290 degrees) at 9 MPH (8 KT):0
Visibility: 10 mile(s):0
Sky conditions: clear
Temperature: 44.1 F (6.7 C)
Dew Point: 19.0 F (-7.2 C)
Relative Humidity: 36%
Pressure (altimeter): 30.25 in. Hg (1024 hPa)
ob: KANB 192253Z AUTO 29008KT 10SM CLR 07/M07 A3025 RMK AO2 SLP251 T00671072
cycle: 23

Station Type Date Time Source
KANB TAF 2020/01/19 18:36 UTC NOAA

TAF KANB 191733Z 1918/2018 31009G19KT P6SM SKC
FM192300 33007KT P6SM SKC

Example: see airport list